PWSweather.com
Personal Weather Stations
Station Observations
WD4JKH
Forsyth, GA 31029

Forsyth, GA 31029

Lat: 33.033225, Lon: -83.927995

Elevation: 709

Station Type: Davis Vantage VUE

High Low Average
Temperature 61.9°F16.6°C 52.8°F11.6°C 57.1°F13.9°C
Dew Point 61.3°F16.3°C 51.9°F11.1°C 55.8°F13.2°C
Winds 7.4 mph 11.9 kmh Calm Calm 1.0 mph SE1.6 kmh SE
Wind Gusts 19.0 mph30.6 kmh -- 4.0 mph6.4 kmh
Humidity 98% 91% 96%
Pressure 30.23 in1023.7 mb 30.04 in1017.3 mb -
Precipitation 0.08 in2.0 mm - -
Hour Temp Dew Point Humidity Winds Wind Gusts Pressure Precip Precip Rate Daily Precip Total
12:03 AM 63.3°F17.4°C 62.7°F17.1°C 98% Calm Calm 1.0 mph1.6 kmh 30.15 in1021.0 mb 0.00 in0.0 mm 0.00 in0.0 mm 0.17 in4.3 mm
12:08 AM 63.4°F17.4°C 63.1°F17.3°C 99% Calm Calm 1.0 mph1.6 kmh 30.14 in1020.7 mb 0.00 in0.0 mm 0.00 in0.0 mm 0.17 in4.3 mm
12:13 AM 63.4°F17.4°C 63.1°F17.3°C 99% Calm Calm 1.0 mph1.6 kmh 30.14 in1020.7 mb 0.00 in0.0 mm 0.00 in0.0 mm 0.17 in4.3 mm
12:18 AM 63.4°F17.4°C 63.1°F17.3°C 99% Calm Calm 1.0 mph1.6 kmh 30.15 in1021.0 mb 0.00 in0.0 mm 0.00 in0.0 mm 0.17 in4.3 mm
12:23 AM 63.4°F17.4°C 63.1°F17.3°C 99% 1.0 mph W1.6 kmh W 1.0 mph1.6 kmh 30.15 in1021.0 mb 0.00 in0.0 mm 0.00 in0.0 mm 0.17 in4.3 mm
12:28 AM 63.4°F17.4°C 63.1°F17.3°C 99% Calm Calm 2.0 mph3.2 kmh 30.15 in1021.0 mb 0.00 in0.0 mm 0.00 in0.0 mm 0.17 in4.3 mm
12:33 AM 63.3°F17.4°C 63.0°F17.2°C 99% Calm Calm 2.0 mph3.2 kmh 30.15 in1021.0 mb 0.00 in0.0 mm 0.00 in0.0 mm 0.17 in4.3 mm
12:38 AM 63.3°F17.4°C 63.0°F17.2°C 99% Calm Calm 2.0 mph3.2 kmh 30.15 in1021.0 mb 0.00 in0.0 mm 0.00 in0.0 mm 0.17 in4.3 mm
12:43 AM 63.3°F17.4°C 63.0°F17.2°C 99% Calm Calm 2.0 mph3.2 kmh 30.15 in1021.0 mb 0.00 in0.0 mm 0.00 in0.0 mm 0.17 in4.3 mm
12:48 AM 63.2°F17.3°C 62.9°F17.2°C 99% 1.0 mph WNW1.6 kmh WNW 1.0 mph1.6 kmh 30.15 in1021.0 mb 0.00 in0.0 mm 0.00 in0.0 mm 0.17 in4.3 mm
12:53 AM 63.0°F17.2°C 62.4°F16.9°C 98% 1.0 mph NW1.6 kmh NW 1.0 mph1.6 kmh 30.15 in1021.0 mb 0.00 in0.0 mm 0.00 in0.0 mm 0.17 in4.3 mm
12:58 AM 62.2°F16.8°C 61.6°F16.4°C 98% 1.3 mph NW2.1 kmh NW 2.0 mph3.2 kmh 30.15 in1021.0 mb 0.00 in0.0 mm 0.00 in0.0 mm 0.17 in4.3 mm
01:03 AM 61.9°F16.6°C 61.3°F16.3°C 98% Calm Calm 2.0 mph3.2 kmh 30.14 in1020.7 mb 0.00 in0.0 mm 0.00 in0.0 mm 0.00 in0.0 mm
01:08 AM 61.6°F16.4°C 60.7°F15.9°C 97% 1.0 mph WNW1.6 kmh WNW 2.0 mph3.2 kmh 30.15 in1021.0 mb 0.00 in0.0 mm 0.00 in0.0 mm 0.00 in0.0 mm
01:13 AM 61.7°F16.5°C 60.8°F16.0°C 97% Calm Calm 2.0 mph3.2 kmh 30.15 in1021.0 mb 0.00 in0.0 mm 0.00 in0.0 mm 0.00 in0.0 mm
01:18 AM 61.7°F16.5°C 60.8°F16.0°C 97% 1.0 mph WNW1.6 kmh WNW 1.0 mph1.6 kmh 30.16 in1021.3 mb 0.00 in0.0 mm 0.00 in0.0 mm 0.00 in0.0 mm
01:23 AM 61.7°F16.5°C 60.5°F15.8°C 96% 1.0 mph WNW1.6 kmh WNW 1.0 mph1.6 kmh 30.16 in1021.3 mb 0.00 in0.0 mm 0.00 in0.0 mm 0.00 in0.0 mm
01:28 AM 61.7°F16.5°C 60.2°F15.7°C 95% 1.0 mph NW1.6 kmh NW 2.0 mph3.2 kmh 30.16 in1021.3 mb 0.00 in0.0 mm 0.00 in0.0 mm 0.00 in0.0 mm
01:33 AM 61.6°F16.4°C 60.1°F15.6°C 95% 1.0 mph NW1.6 kmh NW 2.0 mph3.2 kmh 30.16 in1021.3 mb 0.00 in0.0 mm 0.00 in0.0 mm 0.00 in0.0 mm
01:38 AM 61.7°F16.5°C 60.2°F15.7°C 95% 1.2 mph NW1.9 kmh NW 2.0 mph3.2 kmh 30.16 in1021.3 mb 0.00 in0.0 mm 0.00 in0.0 mm 0.00 in0.0 mm
01:43 AM 61.7°F16.5°C 60.2°F15.7°C 95% 1.2 mph NW1.9 kmh NW 3.0 mph4.8 kmh 30.16 in1021.3 mb 0.00 in0.0 mm 0.00 in0.0 mm 0.00 in0.0 mm
01:48 AM 61.6°F16.4°C 60.1°F15.6°C 95% Calm Calm 3.0 mph4.8 kmh 30.16 in1021.3 mb 0.00 in0.0 mm 0.00 in0.0 mm 0.00 in0.0 mm
01:53 AM 61.6°F16.4°C 60.4°F15.8°C 96% Calm Calm 3.0 mph4.8 kmh 30.16 in1021.3 mb 0.00 in0.0 mm 0.00 in0.0 mm 0.00 in0.0 mm
01:58 AM 61.5°F16.4°C 60.3°F15.7°C 96% Calm Calm 3.0 mph4.8 kmh 30.16 in1021.3 mb 0.00 in0.0 mm 0.00 in0.0 mm 0.00 in0.0 mm
02:03 AM 61.4°F16.3°C 60.2°F15.7°C 96% 1.0 mph WNW1.6 kmh WNW 1.0 mph1.6 kmh 30.16 in1021.3 mb 0.00 in0.0 mm 0.00 in0.0 mm 0.00 in0.0 mm
02:08 AM 61.4°F16.3°C 60.2°F15.7°C 96% Calm Calm 1.0 mph1.6 kmh 30.15 in1021.0 mb 0.00 in0.0 mm 0.00 in0.0 mm 0.00 in0.0 mm
02:13 AM 61.3°F16.3°C 60.2°F15.7°C 96% Calm Calm 1.0 mph1.6 kmh 30.15 in1021.0 mb 0.00 in0.0 mm 0.00 in0.0 mm 0.00 in0.0 mm
02:18 AM 61.3°F16.3°C 60.2°F15.7°C 96% Calm Calm 1.0 mph1.6 kmh 30.15 in1021.0 mb 0.00 in0.0 mm 0.00 in0.0 mm 0.00 in0.0 mm
02:23 AM 61.2°F16.2°C 60.1°F15.6°C 96% Calm Calm 1.0 mph1.6 kmh 30.15 in1021.0 mb 0.00 in0.0 mm 0.00 in0.0 mm 0.00 in0.0 mm
02:28 AM 61.2°F16.2°C 60.0°F15.6°C 96% 1.0 mph NNW1.6 kmh NNW 1.0 mph1.6 kmh 30.16 in1021.3 mb 0.00 in0.0 mm 0.00 in0.0 mm 0.00 in0.0 mm
02:33 AM 61.1°F16.2°C 60.0°F15.6°C 96% 1.0 mph NW1.6 kmh NW 1.0 mph1.6 kmh 30.15 in1021.0 mb 0.00 in0.0 mm 0.00 in0.0 mm 0.00 in0.0 mm
02:38 AM 61.0°F16.1°C 59.8°F15.4°C 96% Calm Calm 1.0 mph1.6 kmh 30.15 in1021.0 mb 0.00 in0.0 mm 0.00 in0.0 mm 0.00 in0.0 mm
02:43 AM 60.9°F16.1°C 59.8°F15.4°C 96% 1.1 mph WNW1.8 kmh WNW 2.0 mph3.2 kmh 30.16 in1021.3 mb 0.00 in0.0 mm 0.00 in0.0 mm 0.00 in0.0 mm
02:48 AM 60.7°F15.9°C 59.5°F15.3°C 96% 1.1 mph N1.8 kmh N 2.0 mph3.2 kmh 30.15 in1021.0 mb 0.00 in0.0 mm 0.00 in0.0 mm 0.00 in0.0 mm
02:53 AM 60.6°F15.9°C 59.1°F15.1°C 95% 1.0 mph NW1.6 kmh NW 2.0 mph3.2 kmh 30.16 in1021.3 mb 0.00 in0.0 mm 0.00 in0.0 mm 0.00 in0.0 mm
02:58 AM 60.5°F15.8°C 59.0°F15.0°C 95% 1.0 mph NW1.6 kmh NW 2.0 mph3.2 kmh 30.16 in1021.3 mb 0.00 in0.0 mm 0.00 in0.0 mm 0.00 in0.0 mm
03:03 AM 60.4°F15.8°C 58.9°F14.9°C 95% Calm Calm 2.0 mph3.2 kmh 30.16 in1021.3 mb 0.00 in0.0 mm 0.00 in0.0 mm 0.00 in0.0 mm
03:08 AM 60.3°F15.7°C 58.8°F14.9°C 95% Calm Calm 2.0 mph3.2 kmh 30.16 in1021.3 mb 0.00 in0.0 mm 0.00 in0.0 mm 0.00 in0.0 mm
03:13 AM 60.2°F15.7°C 58.7°F14.8°C 95% Calm Calm 2.0 mph3.2 kmh 30.16 in1021.3 mb 0.00 in0.0 mm 0.00 in0.0 mm 0.00 in0.0 mm
03:18 AM 60.0°F15.6°C 58.5°F14.7°C 95% Calm Calm 2.0 mph3.2 kmh 30.16 in1021.3 mb 0.00 in0.0 mm 0.00 in0.0 mm 0.00 in0.0 mm
03:23 AM 59.9°F15.5°C 58.4°F14.7°C 95% Calm Calm -- 30.16 in1021.3 mb 0.00 in0.0 mm 0.00 in0.0 mm 0.00 in0.0 mm
03:28 AM 59.8°F15.4°C 58.3°F14.6°C 95% 1.3 mph NNW2.1 kmh NNW 3.0 mph4.8 kmh 30.17 in1021.7 mb 0.00 in0.0 mm 0.00 in0.0 mm 0.00 in0.0 mm
03:33 AM 59.7°F15.4°C 58.6°F14.8°C 96% 1.1 mph NW1.8 kmh NW 3.0 mph4.8 kmh 30.17 in1021.7 mb 0.00 in0.0 mm 0.00 in0.0 mm 0.00 in0.0 mm
03:38 AM 59.6°F15.3°C 58.5°F14.7°C 96% 1.0 mph NW1.6 kmh NW 3.0 mph4.8 kmh 30.17 in1021.7 mb 0.00 in0.0 mm 0.00 in0.0 mm 0.00 in0.0 mm
03:43 AM 59.5°F15.3°C 58.3°F14.6°C 96% 1.0 mph NW1.6 kmh NW 3.0 mph4.8 kmh 30.17 in1021.7 mb 0.00 in0.0 mm 0.00 in0.0 mm 0.00 in0.0 mm
03:47 AM 59.5°F15.3°C 58.3°F14.6°C 96% 1.0 mph NNW1.6 kmh NNW 2.0 mph3.2 kmh 30.17 in1021.7 mb 0.00 in0.0 mm 0.00 in0.0 mm 0.00 in0.0 mm
03:52 AM 59.5°F15.3°C 58.3°F14.6°C 96% 1.0 mph NNW1.6 kmh NNW 1.0 mph1.6 kmh 30.17 in1021.7 mb 0.00 in0.0 mm 0.00 in0.0 mm 0.00 in0.0 mm
03:57 AM 59.4°F15.2°C 58.2°F14.6°C 96% 1.0 mph NNW1.6 kmh NNW 1.0 mph1.6 kmh 30.17 in1021.7 mb 0.00 in0.0 mm 0.00 in0.0 mm 0.00 in0.0 mm
04:02 AM 59.4°F15.2°C 58.2°F14.6°C 96% Calm Calm 1.0 mph1.6 kmh 30.17 in1021.7 mb 0.00 in0.0 mm 0.00 in0.0 mm 0.00 in0.0 mm
04:07 AM 59.3°F15.2°C 58.4°F14.7°C 97% Calm Calm 1.0 mph1.6 kmh 30.17 in1021.7 mb 0.00 in0.0 mm 0.00 in0.0 mm 0.00 in0.0 mm
04:12 AM 59.2°F15.1°C 58.3°F14.6°C 97% Calm Calm 1.0 mph1.6 kmh 30.17 in1021.7 mb 0.00 in0.0 mm 0.00 in0.0 mm 0.00 in0.0 mm
04:17 AM 59.1°F15.1°C 58.2°F14.6°C 97% Calm Calm 1.0 mph1.6 kmh 30.16 in1021.3 mb 0.00 in0.0 mm 0.00 in0.0 mm 0.00 in0.0 mm
04:22 AM 59.1°F15.1°C 58.2°F14.6°C 97% Calm Calm -- 30.16 in1021.3 mb 0.00 in0.0 mm 0.00 in0.0 mm 0.00 in0.0 mm
04:27 AM 59.1°F15.1°C 58.2°F14.6°C 97% Calm Calm -- 30.16 in1021.3 mb 0.00 in0.0 mm 0.00 in0.0 mm 0.00 in0.0 mm
04:32 AM 59.1°F15.1°C 58.2°F14.6°C 97% Calm Calm -- 30.16 in1021.3 mb 0.00 in0.0 mm 0.00 in0.0 mm 0.00 in0.0 mm
04:37 AM 59.1°F15.1°C 58.2°F14.6°C 97% Calm Calm -- 30.16 in1021.3 mb 0.00 in0.0 mm 0.00 in0.0 mm 0.00 in0.0 mm
04:42 AM 59.1°F15.1°C 58.2°F14.6°C 97% Calm Calm -- 30.16 in1021.3 mb 0.00 in0.0 mm 0.00 in0.0 mm 0.00 in0.0 mm
04:47 AM 59.1°F15.1°C 58.2°F14.6°C 97% Calm Calm -- 30.16 in1021.3 mb 0.00 in0.0 mm 0.00 in0.0 mm 0.00 in0.0 mm
04:52 AM 59.1°F15.1°C 58.2°F14.6°C 97% Calm Calm -- 30.16 in1021.3 mb 0.00 in0.0 mm 0.00 in0.0 mm 0.00 in0.0 mm
04:57 AM 59.1°F15.1°C 58.2°F14.6°C 97% Calm Calm -- 30.16 in1021.3 mb 0.00 in0.0 mm 0.00 in0.0 mm 0.00 in0.0 mm
05:02 AM 59.1°F15.1°C 58.2°F14.6°C 97% Calm Calm -- 30.15 in1021.0 mb 0.00 in0.0 mm 0.00 in0.0 mm 0.00 in0.0 mm
05:07 AM 59.1°F15.1°C 58.2°F14.6°C 97% Calm Calm -- 30.15 in1021.0 mb 0.00 in0.0 mm 0.00 in0.0 mm 0.00 in0.0 mm
05:12 AM 59.0°F15.0°C 58.1°F14.5°C 97% Calm Calm -- 30.15 in1021.0 mb 0.00 in0.0 mm 0.00 in0.0 mm 0.00 in0.0 mm
05:17 AM 59.0°F15.0°C 58.1°F14.5°C 97% Calm Calm -- 30.15 in1021.0 mb 0.00 in0.0 mm 0.00 in0.0 mm 0.00 in0.0 mm
05:22 AM 58.9°F14.9°C 58.0°F14.4°C 97% Calm Calm -- 30.14 in1020.7 mb 0.00 in0.0 mm 0.00 in0.0 mm 0.00 in0.0 mm
05:27 AM 58.8°F14.9°C 57.9°F14.4°C 97% Calm Calm -- 30.14 in1020.7 mb 0.00 in0.0 mm 0.00 in0.0 mm 0.00 in0.0 mm
05:32 AM 58.7°F14.8°C 57.8°F14.3°C 97% Calm Calm -- 30.13 in1020.3 mb 0.00 in0.0 mm 0.00 in0.0 mm 0.00 in0.0 mm
05:37 AM 58.6°F14.8°C 57.8°F14.3°C 97% Calm Calm -- 30.14 in1020.7 mb 0.00 in0.0 mm 0.00 in0.0 mm 0.00 in0.0 mm
05:42 AM 58.6°F14.8°C 57.8°F14.3°C 97% 1.0 mph WSW1.6 kmh WSW 1.0 mph1.6 kmh 30.14 in1020.7 mb 0.00 in0.0 mm 0.00 in0.0 mm 0.00 in0.0 mm
05:47 AM 58.7°F14.8°C 57.9°F14.4°C 97% Calm Calm 1.0 mph1.6 kmh 30.14 in1020.7 mb 0.00 in0.0 mm 0.00 in0.0 mm 0.00 in0.0 mm
05:52 AM 58.6°F14.8°C 57.8°F14.3°C 97% Calm Calm 1.0 mph1.6 kmh 30.14 in1020.7 mb 0.00 in0.0 mm 0.00 in0.0 mm 0.00 in0.0 mm
05:57 AM 58.6°F14.8°C 57.7°F14.3°C 97% Calm Calm 1.0 mph1.6 kmh 30.14 in1020.7 mb 0.00 in0.0 mm 0.00 in0.0 mm 0.00 in0.0 mm
06:02 AM 58.6°F14.8°C 57.7°F14.3°C 97% Calm Calm 1.0 mph1.6 kmh 30.15 in1021.0 mb 0.00 in0.0 mm 0.00 in0.0 mm 0.00 in0.0 mm
06:07 AM 58.5°F14.7°C 57.6°F14.2°C 97% 1.5 mph NW2.4 kmh NW 2.0 mph3.2 kmh 30.15 in1021.0 mb 0.00 in0.0 mm 0.00 in0.0 mm 0.00 in0.0 mm
06:12 AM 58.5°F14.7°C 57.6°F14.2°C 97% Calm Calm 3.0 mph4.8 kmh 30.15 in1021.0 mb 0.00 in0.0 mm 0.00 in0.0 mm 0.00 in0.0 mm
06:17 AM 58.5°F14.7°C 57.6°F14.2°C 97% 1.0 mph N1.6 kmh N 3.0 mph4.8 kmh 30.15 in1021.0 mb 0.00 in0.0 mm 0.00 in0.0 mm 0.00 in0.0 mm
06:22 AM 58.5°F14.7°C 57.6°F14.2°C 97% 1.0 mph NNE1.6 kmh NNE 3.0 mph4.8 kmh 30.15 in1021.0 mb 0.00 in0.0 mm 0.00 in0.0 mm 0.00 in0.0 mm
06:27 AM 58.4°F14.7°C 57.5°F14.2°C 97% Calm Calm 3.0 mph4.8 kmh 30.15 in1021.0 mb 0.00 in0.0 mm 0.00 in0.0 mm 0.00 in0.0 mm
06:32 AM 58.2°F14.6°C 57.3°F14.1°C 97% 1.0 mph N1.6 kmh N 1.0 mph1.6 kmh 30.15 in1021.0 mb 0.00 in0.0 mm 0.00 in0.0 mm 0.00 in0.0 mm
06:37 AM 58.1°F14.5°C 57.2°F14.0°C 97% 1.2 mph NNE1.9 kmh NNE 2.0 mph3.2 kmh 30.14 in1020.7 mb 0.00 in0.0 mm 0.00 in0.0 mm 0.00 in0.0 mm
06:42 AM 58.0°F14.4°C 57.1°F13.9°C 97% Calm Calm 2.0 mph3.2 kmh 30.15 in1021.0 mb 0.00 in0.0 mm 0.00 in0.0 mm 0.00 in0.0 mm
06:47 AM 57.9°F14.4°C 57.0°F13.9°C 97% Calm Calm 2.0 mph3.2 kmh 30.14 in1020.7 mb 0.00 in0.0 mm 0.00 in0.0 mm 0.00 in0.0 mm
06:52 AM 57.8°F14.3°C 57.0°F13.9°C 97% Calm Calm 2.0 mph3.2 kmh 30.15 in1021.0 mb 0.00 in0.0 mm 0.00 in0.0 mm 0.00 in0.0 mm
06:57 AM 57.7°F14.3°C 56.9°F13.8°C 97% Calm Calm -- 30.14 in1020.7 mb 0.00 in0.0 mm 0.00 in0.0 mm 0.00 in0.0 mm
07:02 AM 57.6°F14.2°C 56.8°F13.8°C 97% Calm Calm -- 30.14 in1020.7 mb 0.00 in0.0 mm 0.00 in0.0 mm 0.00 in0.0 mm
07:07 AM 57.7°F14.3°C 56.9°F13.8°C 97% 1.0 mph NNE1.6 kmh NNE 1.0 mph1.6 kmh 30.15 in1021.0 mb 0.00 in0.0 mm 0.00 in0.0 mm 0.00 in0.0 mm
07:12 AM 57.7°F14.3°C 56.9°F13.8°C 97% Calm Calm 1.0 mph1.6 kmh 30.15 in1021.0 mb 0.00 in0.0 mm 0.00 in0.0 mm 0.00 in0.0 mm
07:17 AM 57.6°F14.2°C 56.4°F13.6°C 96% Calm Calm 1.0 mph1.6 kmh 30.15 in1021.0 mb 0.00 in0.0 mm 0.00 in0.0 mm 0.00 in0.0 mm
07:22 AM 57.6°F14.2°C 56.4°F13.6°C 96% Calm Calm 1.0 mph1.6 kmh 30.15 in1021.0 mb 0.00 in0.0 mm 0.00 in0.0 mm 0.00 in0.0 mm
07:27 AM 57.6°F14.2°C 56.7°F13.7°C 97% Calm Calm -- 30.16 in1021.3 mb 0.00 in0.0 mm 0.00 in0.0 mm 0.00 in0.0 mm
07:32 AM 57.6°F14.2°C 56.7°F13.7°C 97% Calm Calm -- 30.16 in1021.3 mb 0.00 in0.0 mm 0.00 in0.0 mm 0.00 in0.0 mm
07:37 AM 57.7°F14.3°C 56.8°F13.8°C 97% 1.0 mph NNW1.6 kmh NNW 1.0 mph1.6 kmh 30.16 in1021.3 mb 0.00 in0.0 mm 0.00 in0.0 mm 0.00 in0.0 mm
07:42 AM 57.7°F14.3°C 56.8°F13.8°C 97% Calm Calm 1.0 mph1.6 kmh 30.16 in1021.3 mb 0.00 in0.0 mm 0.00 in0.0 mm 0.00 in0.0 mm
07:47 AM 57.7°F14.3°C 56.8°F13.8°C 97% 1.0 mph N1.6 kmh N 1.0 mph1.6 kmh 30.16 in1021.3 mb 0.00 in0.0 mm 0.00 in0.0 mm 0.00 in0.0 mm
07:52 AM 57.7°F14.3°C 56.8°F13.8°C 97% Calm Calm 1.0 mph1.6 kmh 30.16 in1021.3 mb 0.00 in0.0 mm 0.00 in0.0 mm 0.00 in0.0 mm
07:57 AM 57.7°F14.3°C 56.8°F13.8°C 97% Calm Calm 1.0 mph1.6 kmh 30.16 in1021.3 mb 0.00 in0.0 mm 0.00 in0.0 mm 0.00 in0.0 mm
08:02 AM 57.7°F14.3°C 56.8°F13.8°C 97% Calm Calm 1.0 mph1.6 kmh 30.16 in1021.3 mb 0.00 in0.0 mm 0.00 in0.0 mm 0.00 in0.0 mm
08:07 AM 57.7°F14.3°C 56.8°F13.8°C 97% Calm Calm 1.0 mph1.6 kmh 30.16 in1021.3 mb 0.00 in0.0 mm 0.00 in0.0 mm 0.00 in0.0 mm
08:12 AM 57.8°F14.3°C 56.9°F13.8°C 97% 1.4 mph NNW2.3 kmh NNW 3.0 mph4.8 kmh 30.17 in1021.7 mb 0.00 in0.0 mm 0.00 in0.0 mm 0.00 in0.0 mm
08:17 AM 57.7°F14.3°C 56.5°F13.6°C 96% 1.0 mph N1.6 kmh N 3.0 mph4.8 kmh 30.17 in1021.7 mb 0.00 in0.0 mm 0.00 in0.0 mm 0.00 in0.0 mm
08:22 AM 57.7°F14.3°C 56.5°F13.6°C 96% Calm Calm 3.0 mph4.8 kmh 30.17 in1021.7 mb 0.00 in0.0 mm 0.00 in0.0 mm 0.00 in0.0 mm
08:27 AM 57.6°F14.2°C 56.4°F13.6°C 96% Calm Calm 3.0 mph4.8 kmh 30.17 in1021.7 mb 0.00 in0.0 mm 0.00 in0.0 mm 0.00 in0.0 mm
08:32 AM 57.7°F14.3°C 56.5°F13.6°C 96% Calm Calm 1.0 mph1.6 kmh 30.17 in1021.7 mb 0.00 in0.0 mm 0.00 in0.0 mm 0.00 in0.0 mm
08:37 AM 57.6°F14.2°C 56.4°F13.6°C 96% 1.0 mph NNE1.6 kmh NNE 2.0 mph3.2 kmh 30.17 in1021.7 mb 0.00 in0.0 mm 0.00 in0.0 mm 0.00 in0.0 mm
08:42 AM 57.6°F14.2°C 56.4°F13.6°C 96% 1.0 mph NNE1.6 kmh NNE 2.0 mph3.2 kmh 30.17 in1021.7 mb 0.00 in0.0 mm 0.00 in0.0 mm 0.00 in0.0 mm
08:46 AM 57.6°F14.2°C 56.4°F13.6°C 96% 1.0 mph NNE1.6 kmh NNE 2.0 mph3.2 kmh 30.18 in1022.0 mb 0.00 in0.0 mm 0.00 in0.0 mm 0.00 in0.0 mm
08:51 AM 57.6°F14.2°C 56.4°F13.6°C 96% Calm Calm 2.0 mph3.2 kmh 30.17 in1021.7 mb 0.00 in0.0 mm 0.00 in0.0 mm 0.00 in0.0 mm
08:56 AM 57.6°F14.2°C 56.4°F13.6°C 96% 1.5 mph N2.4 kmh N 2.0 mph3.2 kmh 30.18 in1022.0 mb 0.00 in0.0 mm 0.00 in0.0 mm 0.00 in0.0 mm
09:01 AM 57.5°F14.2°C 56.4°F13.6°C 96% 1.4 mph N2.3 kmh N 3.0 mph4.8 kmh 30.18 in1022.0 mb 0.00 in0.0 mm 0.00 in0.0 mm 0.00 in0.0 mm
09:06 AM 57.5°F14.2°C 56.3°F13.5°C 96% 1.2 mph N1.9 kmh N 4.0 mph6.4 kmh 30.19 in1022.4 mb 0.00 in0.0 mm 0.00 in0.0 mm 0.00 in0.0 mm
09:11 AM 57.3°F14.1°C 56.1°F13.4°C 96% 2.9 mph NNE4.7 kmh NNE 6.0 mph9.7 kmh 30.18 in1022.0 mb 0.00 in0.0 mm 0.00 in0.0 mm 0.00 in0.0 mm
09:16 AM 57.3°F14.1°C 55.8°F13.2°C 95% 1.3 mph NE2.1 kmh NE 6.0 mph9.7 kmh 30.18 in1022.0 mb 0.00 in0.0 mm 0.00 in0.0 mm 0.00 in0.0 mm
09:21 AM 57.3°F14.1°C 55.8°F13.2°C 95% 1.5 mph NE2.4 kmh NE 6.0 mph9.7 kmh 30.17 in1021.7 mb 0.00 in0.0 mm 0.00 in0.0 mm 0.00 in0.0 mm
09:26 AM 57.3°F14.1°C 55.8°F13.2°C 95% 1.0 mph NE1.6 kmh NE 6.0 mph9.7 kmh 30.18 in1022.0 mb 0.00 in0.0 mm 0.00 in0.0 mm 0.00 in0.0 mm
09:31 AM 57.3°F14.1°C 55.8°F13.2°C 95% 1.1 mph NE1.8 kmh NE 4.0 mph6.4 kmh 30.18 in1022.0 mb 0.00 in0.0 mm 0.00 in0.0 mm 0.00 in0.0 mm
09:36 AM 57.3°F14.1°C 55.9°F13.3°C 95% 1.3 mph NNE2.1 kmh NNE 4.0 mph6.4 kmh 30.19 in1022.4 mb 0.00 in0.0 mm 0.00 in0.0 mm 0.00 in0.0 mm
09:41 AM 57.3°F14.1°C 55.9°F13.3°C 95% Calm Calm 4.0 mph6.4 kmh 30.19 in1022.4 mb 0.00 in0.0 mm 0.00 in0.0 mm 0.00 in0.0 mm
09:46 AM 57.2°F14.0°C 55.8°F13.2°C 95% 1.0 mph NNE1.6 kmh NNE 2.0 mph3.2 kmh 30.19 in1022.4 mb 0.00 in0.0 mm 0.00 in0.0 mm 0.00 in0.0 mm
09:51 AM 57.2°F14.0°C 55.4°F13.0°C 94% 1.0 mph NE1.6 kmh NE 2.0 mph3.2 kmh 30.19 in1022.4 mb 0.00 in0.0 mm 0.00 in0.0 mm 0.00 in0.0 mm
09:56 AM 57.2°F14.0°C 55.4°F13.0°C 94% Calm Calm 1.0 mph1.6 kmh 30.20 in1022.7 mb 0.00 in0.0 mm 0.00 in0.0 mm 0.00 in0.0 mm
10:01 AM 57.3°F14.1°C 55.5°F13.1°C 94% 1.0 mph NNE1.6 kmh NNE 1.0 mph1.6 kmh 30.21 in1023.0 mb 0.00 in0.0 mm 0.00 in0.0 mm 0.00 in0.0 mm
10:06 AM 57.4°F14.1°C 55.6°F13.1°C 94% Calm Calm 1.0 mph1.6 kmh 30.22 in1023.4 mb 0.00 in0.0 mm 0.00 in0.0 mm 0.00 in0.0 mm
10:11 AM 57.5°F14.2°C 55.7°F13.2°C 94% Calm Calm 1.0 mph1.6 kmh 30.22 in1023.4 mb 0.00 in0.0 mm 0.00 in0.0 mm 0.00 in0.0 mm
10:16 AM 57.5°F14.2°C 55.7°F13.2°C 94% Calm Calm 1.0 mph1.6 kmh 30.22 in1023.4 mb 0.00 in0.0 mm 0.00 in0.0 mm 0.00 in0.0 mm
10:21 AM 57.6°F14.2°C 55.8°F13.2°C 94% Calm Calm -- 30.22 in1023.4 mb 0.00 in0.0 mm 0.00 in0.0 mm 0.00 in0.0 mm
10:26 AM 57.7°F14.3°C 55.9°F13.3°C 94% Calm Calm -- 30.22 in1023.4 mb 0.00 in0.0 mm 0.00 in0.0 mm 0.00 in0.0 mm
10:31 AM 57.7°F14.3°C 55.7°F13.2°C 93% Calm Calm -- 30.22 in1023.4 mb 0.00 in0.0 mm 0.00 in0.0 mm 0.00 in0.0 mm
10:36 AM 57.8°F14.3°C 55.7°F13.2°C 93% Calm Calm -- 30.22 in1023.4 mb 0.00 in0.0 mm 0.00 in0.0 mm 0.00 in0.0 mm
10:41 AM 58.0°F14.4°C 56.0°F13.3°C 93% Calm Calm -- 30.21 in1023.0 mb 0.00 in0.0 mm 0.00 in0.0 mm 0.00 in0.0 mm
10:46 AM 58.0°F14.4°C 55.4°F13.0°C 91% 1.4 mph NE2.3 kmh NE 3.0 mph4.8 kmh 30.21 in1023.0 mb 0.00 in0.0 mm 0.00 in0.0 mm 0.00 in0.0 mm
10:51 AM 58.0°F14.4°C 55.4°F13.0°C 91% Calm Calm 3.0 mph4.8 kmh 30.22 in1023.4 mb 0.00 in0.0 mm 0.00 in0.0 mm 0.00 in0.0 mm
10:56 AM 58.0°F14.4°C 55.4°F13.0°C 91% Calm Calm 3.0 mph4.8 kmh 30.22 in1023.4 mb 0.00 in0.0 mm 0.00 in0.0 mm 0.00 in0.0 mm
11:01 AM 58.1°F14.5°C 55.8°F13.2°C 92% Calm Calm 3.0 mph4.8 kmh 30.21 in1023.0 mb 0.00 in0.0 mm 0.00 in0.0 mm 0.00 in0.0 mm
11:06 AM 58.1°F14.5°C 55.8°F13.2°C 92% Calm Calm 1.0 mph1.6 kmh 30.22 in1023.4 mb 0.00 in0.0 mm 0.00 in0.0 mm 0.00 in0.0 mm
11:11 AM 58.2°F14.6°C 55.8°F13.2°C 92% Calm Calm 1.0 mph1.6 kmh 30.22 in1023.4 mb 0.00 in0.0 mm 0.00 in0.0 mm 0.00 in0.0 mm
11:16 AM 58.2°F14.6°C 55.8°F13.2°C 92% Calm Calm -- 30.22 in1023.4 mb 0.00 in0.0 mm 0.00 in0.0 mm 0.00 in0.0 mm
11:21 AM 58.2°F14.6°C 55.8°F13.2°C 92% Calm Calm -- 30.21 in1023.0 mb 0.00 in0.0 mm 0.00 in0.0 mm 0.00 in0.0 mm
11:26 AM 58.3°F14.6°C 55.9°F13.3°C 92% Calm Calm -- 30.22 in1023.4 mb 0.00 in0.0 mm 0.00 in0.0 mm 0.00 in0.0 mm
11:31 AM 58.4°F14.7°C 56.0°F13.3°C 92% Calm Calm -- 30.22 in1023.4 mb 0.00 in0.0 mm 0.00 in0.0 mm 0.00 in0.0 mm
11:36 AM 58.4°F14.7°C 56.0°F13.3°C 92% Calm Calm -- 30.22 in1023.4 mb 0.00 in0.0 mm 0.00 in0.0 mm 0.00 in0.0 mm
11:41 AM 58.4°F14.7°C 56.0°F13.3°C 92% 1.3 mph NW2.1 kmh NW 2.0 mph3.2 kmh 30.23 in1023.7 mb 0.00 in0.0 mm 0.00 in0.0 mm 0.00 in0.0 mm
11:46 AM 58.2°F14.6°C 55.9°F13.3°C 92% 1.0 mph NNW1.6 kmh NNW 2.0 mph3.2 kmh 30.22 in1023.4 mb 0.00 in0.0 mm 0.00 in0.0 mm 0.00 in0.0 mm
11:51 AM 58.2°F14.6°C 55.8°F13.2°C 92% Calm Calm 2.0 mph3.2 kmh 30.23 in1023.7 mb 0.00 in0.0 mm 0.00 in0.0 mm 0.00 in0.0 mm
11:56 AM 58.2°F14.6°C 55.9°F13.3°C 92% Calm Calm 2.0 mph3.2 kmh 30.23 in1023.7 mb 0.00 in0.0 mm 0.00 in0.0 mm 0.00 in0.0 mm
12:01 PM 58.4°F14.7°C 56.1°F13.4°C 92% Calm Calm 2.0 mph3.2 kmh 30.22 in1023.4 mb 0.00 in0.0 mm 0.00 in0.0 mm 0.00 in0.0 mm
12:06 PM 58.5°F14.7°C 56.2°F13.4°C 92% Calm Calm -- 30.22 in1023.4 mb 0.00 in0.0 mm 0.00 in0.0 mm 0.00 in0.0 mm
12:11 PM 58.7°F14.8°C 56.3°F13.5°C 92% Calm Calm -- 30.22 in1023.4 mb 0.00 in0.0 mm 0.00 in0.0 mm 0.00 in0.0 mm
12:16 PM 58.7°F14.8°C 56.3°F13.5°C 92% Calm Calm -- 30.22 in1023.4 mb 0.00 in0.0 mm 0.00 in0.0 mm 0.00 in0.0 mm
12:21 PM 58.7°F14.8°C 56.0°F13.3°C 91% Calm Calm -- 30.21 in1023.0 mb 0.00 in0.0 mm 0.00 in0.0 mm 0.00 in0.0 mm
12:26 PM 58.8°F14.9°C 56.2°F13.4°C 91% Calm Calm -- 30.21 in1023.0 mb 0.00 in0.0 mm 0.00 in0.0 mm 0.00 in0.0 mm
12:31 PM 58.8°F14.9°C 56.1°F13.4°C 91% 1.0 mph NNE1.6 kmh NNE 1.0 mph1.6 kmh 30.21 in1023.0 mb 0.00 in0.0 mm 0.00 in0.0 mm 0.00 in0.0 mm
12:36 PM 58.6°F14.8°C 56.2°F13.4°C 92% Calm Calm 1.0 mph1.6 kmh 30.21 in1023.0 mb 0.00 in0.0 mm 0.00 in0.0 mm 0.00 in0.0 mm
12:41 PM 58.5°F14.7°C 56.1°F13.4°C 92% 1.0 mph NNE1.6 kmh NNE 1.0 mph1.6 kmh 30.21 in1023.0 mb 0.00 in0.0 mm 0.00 in0.0 mm 0.00 in0.0 mm
12:46 PM 58.3°F14.6°C 56.2°F13.4°C 93% Calm Calm 1.0 mph1.6 kmh 30.20 in1022.7 mb 0.00 in0.0 mm 0.00 in0.0 mm 0.00 in0.0 mm
12:51 PM 58.3°F14.6°C 56.2°F13.4°C 93% Calm Calm 1.0 mph1.6 kmh 30.20 in1022.7 mb 0.00 in0.0 mm 0.00 in0.0 mm 0.00 in0.0 mm
12:56 PM 58.2°F14.6°C 56.2°F13.4°C 93% Calm Calm 1.0 mph1.6 kmh 30.20 in1022.7 mb 0.00 in0.0 mm 0.00 in0.0 mm 0.00 in0.0 mm
01:01 PM 58.2°F14.6°C 56.2°F13.4°C 93% Calm Calm -- 30.19 in1022.4 mb 0.00 in0.0 mm 0.00 in0.0 mm 0.00 in0.0 mm
01:06 PM 58.3°F14.6°C 56.3°F13.5°C 93% Calm Calm -- 30.19 in1022.4 mb 0.00 in0.0 mm 0.00 in0.0 mm 0.00 in0.0 mm
01:11 PM 58.5°F14.7°C 56.4°F13.6°C 93% 1.0 mph NE1.6 kmh NE 1.0 mph1.6 kmh 30.19 in1022.4 mb 0.00 in0.0 mm 0.00 in0.0 mm 0.00 in0.0 mm
01:16 PM 58.6°F14.8°C 56.5°F13.6°C 93% Calm Calm 1.0 mph1.6 kmh 30.18 in1022.0 mb 0.00 in0.0 mm 0.00 in0.0 mm 0.00 in0.0 mm
01:21 PM 58.6°F14.8°C 56.5°F13.6°C 93% 1.0 mph NE1.6 kmh NE 2.0 mph3.2 kmh 30.17 in1021.7 mb 0.00 in0.0 mm 0.00 in0.0 mm 0.00 in0.0 mm
01:26 PM 58.6°F14.8°C 56.5°F13.6°C 93% 1.0 mph ENE1.6 kmh ENE 2.0 mph3.2 kmh 30.17 in1021.7 mb 0.00 in0.0 mm 0.00 in0.0 mm 0.00 in0.0 mm
01:31 PM 58.6°F14.8°C 56.5°F13.6°C 93% 1.0 mph NE1.6 kmh NE 2.0 mph3.2 kmh 30.16 in1021.3 mb 0.00 in0.0 mm 0.00 in0.0 mm 0.00 in0.0 mm
01:36 PM 58.6°F14.8°C 56.8°F13.8°C 94% 1.3 mph NE2.1 kmh NE 2.0 mph3.2 kmh 30.16 in1021.3 mb 0.00 in0.0 mm 0.00 in0.0 mm 0.00 in0.0 mm
01:41 PM 58.6°F14.8°C 56.9°F13.8°C 94% 1.4 mph ENE2.3 kmh ENE 2.0 mph3.2 kmh 30.15 in1021.0 mb 0.00 in0.0 mm 0.00 in0.0 mm 0.00 in0.0 mm
01:45 PM 58.5°F14.7°C 56.5°F13.6°C 93% 1.4 mph E2.3 kmh E 2.0 mph3.2 kmh 30.15 in1021.0 mb 0.00 in0.0 mm 0.00 in0.0 mm 0.00 in0.0 mm
01:50 PM 58.4°F14.7°C 56.4°F13.6°C 93% 1.0 mph ENE1.6 kmh ENE 2.0 mph3.2 kmh 30.15 in1021.0 mb 0.00 in0.0 mm 0.00 in0.0 mm 0.00 in0.0 mm
01:55 PM 58.6°F14.8°C 56.3°F13.5°C 92% 1.0 mph E1.6 kmh E 2.0 mph3.2 kmh 30.14 in1020.7 mb 0.00 in0.0 mm 0.00 in0.0 mm 0.00 in0.0 mm
02:00 PM 58.7°F14.8°C 56.3°F13.5°C 92% 1.0 mph E1.6 kmh E 2.0 mph3.2 kmh 30.14 in1020.7 mb 0.00 in0.0 mm 0.00 in0.0 mm 0.00 in0.0 mm
02:05 PM 59.0°F15.0°C 56.6°F13.7°C 92% Calm Calm 2.0 mph3.2 kmh 30.14 in1020.7 mb 0.00 in0.0 mm 0.00 in0.0 mm 0.00 in0.0 mm
02:10 PM 59.1°F15.1°C 56.7°F13.7°C 92% Calm Calm 1.0 mph1.6 kmh 30.13 in1020.3 mb 0.00 in0.0 mm 0.00 in0.0 mm 0.00 in0.0 mm
02:15 PM 59.3°F15.2°C 56.9°F13.8°C 92% Calm Calm 1.0 mph1.6 kmh 30.14 in1020.7 mb 0.00 in0.0 mm 0.00 in0.0 mm 0.00 in0.0 mm
02:20 PM 59.5°F15.3°C 57.2°F14.0°C 92% 1.0 mph ENE1.6 kmh ENE 1.0 mph1.6 kmh 30.13 in1020.3 mb 0.00 in0.0 mm 0.00 in0.0 mm 0.00 in0.0 mm
02:25 PM 59.7°F15.4°C 57.4°F14.1°C 92% 1.0 mph NE1.6 kmh NE 2.0 mph3.2 kmh 30.13 in1020.3 mb 0.00 in0.0 mm 0.00 in0.0 mm 0.00 in0.0 mm
02:30 PM 60.1°F15.6°C 57.5°F14.2°C 91% 1.1 mph E1.8 kmh E 2.0 mph3.2 kmh 30.13 in1020.3 mb 0.00 in0.0 mm 0.00 in0.0 mm 0.00 in0.0 mm
02:35 PM 59.9°F15.5°C 57.3°F14.1°C 91% 1.2 mph E1.9 kmh E 2.0 mph3.2 kmh 30.13 in1020.3 mb 0.00 in0.0 mm 0.00 in0.0 mm 0.00 in0.0 mm
02:40 PM 59.9°F15.5°C 57.3°F14.1°C 91% Calm Calm 2.0 mph3.2 kmh 30.13 in1020.3 mb 0.00 in0.0 mm 0.00 in0.0 mm 0.00 in0.0 mm
02:45 PM 59.9°F15.5°C 57.6°F14.2°C 92% 1.0 mph NE1.6 kmh NE 2.0 mph3.2 kmh 30.13 in1020.3 mb 0.00 in0.0 mm 0.00 in0.0 mm 0.00 in0.0 mm
02:50 PM 59.8°F15.4°C 57.2°F14.0°C 91% 1.0 mph ENE1.6 kmh ENE 2.0 mph3.2 kmh 30.13 in1020.3 mb 0.00 in0.0 mm 0.00 in0.0 mm 0.00 in0.0 mm
02:55 PM 59.9°F15.5°C 57.5°F14.2°C 92% Calm Calm 1.0 mph1.6 kmh 30.13 in1020.3 mb 0.00 in0.0 mm 0.00 in0.0 mm 0.00 in0.0 mm
03:00 PM 59.8°F15.4°C 57.4°F14.1°C 92% 1.0 mph NE1.6 kmh NE 2.0 mph3.2 kmh 30.13 in1020.3 mb 0.00 in0.0 mm 0.00 in0.0 mm 0.00 in0.0 mm
03:05 PM 59.8°F15.4°C 57.4°F14.1°C 92% 1.5 mph NE2.4 kmh NE 2.0 mph3.2 kmh 30.13 in1020.3 mb 0.00 in0.0 mm 0.00 in0.0 mm 0.00 in0.0 mm
03:10 PM 59.7°F15.4°C 57.3°F14.1°C 92% 2.1 mph NE3.4 kmh NE 4.0 mph6.4 kmh 30.13 in1020.3 mb 0.00 in0.0 mm 0.00 in0.0 mm 0.00 in0.0 mm
03:15 PM 59.5°F15.3°C 57.4°F14.1°C 93% 1.5 mph ENE2.4 kmh ENE 4.0 mph6.4 kmh 30.13 in1020.3 mb 0.00 in0.0 mm 0.00 in0.0 mm 0.00 in0.0 mm
03:20 PM 59.4°F15.2°C 57.3°F14.1°C 93% 1.5 mph NNE2.4 kmh NNE 4.0 mph6.4 kmh 30.13 in1020.3 mb 0.00 in0.0 mm 0.00 in0.0 mm 0.00 in0.0 mm
03:26 PM 59.2°F15.1°C 57.1°F13.9°C 93% 2.4 mph NE3.9 kmh NE 5.0 mph8.0 kmh 30.12 in1020.0 mb 0.00 in0.0 mm 0.00 in0.0 mm 0.00 in0.0 mm
03:31 PM 59.2°F15.1°C 57.1°F13.9°C 93% 1.7 mph NE2.7 kmh NE 5.0 mph8.0 kmh 30.12 in1020.0 mb 0.00 in0.0 mm 0.00 in0.0 mm 0.00 in0.0 mm
03:35 PM 59.1°F15.1°C 56.8°F13.8°C 92% 1.9 mph N3.1 kmh N 5.0 mph8.0 kmh 30.13 in1020.3 mb 0.00 in0.0 mm 0.00 in0.0 mm 0.00 in0.0 mm
03:40 PM 59.0°F15.0°C 56.9°F13.8°C 93% 1.0 mph N1.6 kmh N 5.0 mph8.0 kmh 30.13 in1020.3 mb 0.00 in0.0 mm 0.00 in0.0 mm 0.00 in0.0 mm
03:46 PM 58.9°F14.9°C 56.8°F13.8°C 93% 2.3 mph NE3.7 kmh NE 6.0 mph9.7 kmh 30.12 in1020.0 mb 0.00 in0.0 mm 0.00 in0.0 mm 0.00 in0.0 mm
03:51 PM 58.6°F14.8°C 56.5°F13.6°C 93% 2.4 mph NNE3.9 kmh NNE 6.0 mph9.7 kmh 30.12 in1020.0 mb 0.00 in0.0 mm 0.00 in0.0 mm 0.00 in0.0 mm
03:56 PM 58.4°F14.7°C 56.6°F13.7°C 94% 1.9 mph NE3.1 kmh NE 6.0 mph9.7 kmh 30.12 in1020.0 mb 0.00 in0.0 mm 0.00 in0.0 mm 0.00 in0.0 mm
04:00 PM 58.3°F14.6°C 56.9°F13.8°C 95% 1.0 mph NE1.6 kmh NE 6.0 mph9.7 kmh 30.12 in1020.0 mb 0.00 in0.0 mm 0.00 in0.0 mm 0.00 in0.0 mm
04:06 PM 58.0°F14.4°C 56.6°F13.7°C 95% 1.4 mph NNE2.3 kmh NNE 6.0 mph9.7 kmh 30.12 in1020.0 mb 0.00 in0.0 mm 0.00 in0.0 mm 0.00 in0.0 mm
04:11 PM 57.8°F14.3°C 56.3°F13.5°C 95% 1.7 mph NNE2.7 kmh NNE 6.0 mph9.7 kmh 30.12 in1020.0 mb 0.00 in0.0 mm 0.00 in0.0 mm 0.00 in0.0 mm
04:16 PM 57.5°F14.2°C 56.4°F13.6°C 96% 3.9 mph NE6.3 kmh NE 6.0 mph9.7 kmh 30.11 in1019.6 mb 0.00 in0.0 mm 0.00 in0.0 mm 0.00 in0.0 mm
04:21 PM 57.3°F14.1°C 56.2°F13.4°C 96% 1.0 mph NE1.6 kmh NE 6.0 mph9.7 kmh 30.11 in1019.6 mb 0.00 in0.0 mm 0.00 in0.0 mm 0.00 in0.0 mm
04:26 PM 57.4°F14.1°C 56.6°F13.7°C 97% 1.1 mph NE1.8 kmh NE 6.0 mph9.7 kmh 30.11 in1019.6 mb 0.00 in0.0 mm 0.00 in0.0 mm 0.00 in0.0 mm
04:31 PM 57.1°F13.9°C 56.3°F13.5°C 97% 2.7 mph NE4.3 kmh NE 6.0 mph9.7 kmh 30.11 in1019.6 mb 0.01 in0.3 mm 0.12 in3.0 mm 0.01 in0.3 mm
04:36 PM 56.8°F13.8°C 55.6°F13.1°C 96% 1.7 mph NNE2.7 kmh NNE 8.0 mph12.9 kmh 30.12 in1020.0 mb 0.01 in0.3 mm 0.00 in0.0 mm 0.01 in0.3 mm
04:41 PM 56.5°F13.6°C 55.3°F12.9°C 96% 1.7 mph N2.7 kmh N 8.0 mph12.9 kmh 30.12 in1020.0 mb 0.01 in0.3 mm 0.00 in0.0 mm 0.01 in0.3 mm
04:46 PM 56.2°F13.4°C 55.3°F12.9°C 97% 1.9 mph NE3.1 kmh NE 8.0 mph12.9 kmh 30.12 in1020.0 mb 0.01 in0.3 mm 0.00 in0.0 mm 0.01 in0.3 mm
04:51 PM 55.5°F13.1°C 54.3°F12.4°C 96% 3.6 mph NE5.8 kmh NE 9.0 mph14.5 kmh 30.12 in1020.0 mb 0.01 in0.3 mm 0.00 in0.0 mm 0.01 in0.3 mm
04:56 PM 55.4°F13.0°C 54.5°F12.5°C 97% 2.8 mph NE4.5 kmh NE 9.0 mph14.5 kmh 30.12 in1020.0 mb 0.01 in0.3 mm 0.00 in0.0 mm 0.01 in0.3 mm
05:01 PM 55.4°F13.0°C 54.6°F12.6°C 97% 2.5 mph NE4.0 kmh NE 9.0 mph14.5 kmh 30.12 in1020.0 mb 0.01 in0.3 mm 0.00 in0.0 mm 0.01 in0.3 mm
05:06 PM 55.3°F12.9°C 54.4°F12.4°C 97% 2.5 mph NE4.0 kmh NE 9.0 mph14.5 kmh 30.11 in1019.6 mb 0.01 in0.3 mm 0.00 in0.0 mm 0.01 in0.3 mm
05:11 PM 55.4°F13.0°C 54.5°F12.5°C 97% 3.0 mph NE4.8 kmh NE 6.0 mph9.7 kmh 30.11 in1019.6 mb 0.01 in0.3 mm 0.00 in0.0 mm 0.01 in0.3 mm
05:16 PM 55.3°F12.9°C 54.4°F12.4°C 97% 3.2 mph NE5.1 kmh NE 6.0 mph9.7 kmh 30.11 in1019.6 mb 0.01 in0.3 mm 0.00 in0.0 mm 0.01 in0.3 mm
05:21 PM 55.3°F12.9°C 54.7°F12.6°C 98% 4.7 mph NE7.6 kmh NE 10.0 mph16.1 kmh 30.11 in1019.6 mb 0.01 in0.3 mm 0.00 in0.0 mm 0.01 in0.3 mm
05:26 PM 55.3°F12.9°C 54.7°F12.6°C 98% 6.0 mph NE9.7 kmh NE 10.0 mph16.1 kmh 30.11 in1019.6 mb 0.01 in0.3 mm 0.00 in0.0 mm 0.01 in0.3 mm
05:31 PM 55.3°F12.9°C 54.7°F12.6°C 98% 2.6 mph NE4.2 kmh NE 10.0 mph16.1 kmh 30.12 in1020.0 mb 0.00 in0.0 mm 0.00 in0.0 mm 0.01 in0.3 mm
05:36 PM 55.2°F12.9°C 54.6°F12.6°C 98% 6.6 mph NE10.6 kmh NE 12.0 mph19.3 kmh 30.12 in1020.0 mb 0.00 in0.0 mm 0.00 in0.0 mm 0.01 in0.3 mm
05:41 PM 55.1°F12.8°C 54.5°F12.5°C 98% 4.8 mph NE7.7 kmh NE 12.0 mph19.3 kmh 30.12 in1020.0 mb 0.00 in0.0 mm 0.00 in0.0 mm 0.01 in0.3 mm
05:46 PM 55.0°F12.8°C 54.4°F12.4°C 98% 3.9 mph NNE6.3 kmh NNE 15.0 mph24.1 kmh 30.13 in1020.3 mb 0.00 in0.0 mm 0.00 in0.0 mm 0.01 in0.3 mm
05:51 PM 54.9°F12.7°C 54.3°F12.4°C 98% 3.8 mph N6.1 kmh N 15.0 mph24.1 kmh 30.13 in1020.3 mb 0.00 in0.0 mm 0.00 in0.0 mm 0.01 in0.3 mm
05:56 PM 54.9°F12.7°C 54.3°F12.4°C 98% 3.7 mph NE6.0 kmh NE 15.0 mph24.1 kmh 30.13 in1020.3 mb 0.00 in0.0 mm 0.00 in0.0 mm 0.01 in0.3 mm
06:01 PM 54.7°F12.6°C 54.1°F12.3°C 98% 3.7 mph NE6.0 kmh NE 15.0 mph24.1 kmh 30.13 in1020.3 mb 0.01 in0.3 mm 0.01 in0.3 mm 0.02 in0.5 mm
06:06 PM 54.7°F12.6°C 54.1°F12.3°C 98% 3.0 mph NE4.8 kmh NE 11.0 mph17.7 kmh 30.13 in1020.3 mb 0.01 in0.3 mm 0.00 in0.0 mm 0.02 in0.5 mm
06:11 PM 54.7°F12.6°C 54.1°F12.3°C 98% 4.5 mph NE7.2 kmh NE 11.0 mph17.7 kmh 30.13 in1020.3 mb 0.02 in0.5 mm 0.12 in3.0 mm 0.03 in0.8 mm
06:16 PM 54.7°F12.6°C 54.1°F12.3°C 98% 1.7 mph NE2.7 kmh NE 10.0 mph16.1 kmh 30.13 in1020.3 mb 0.03 in0.8 mm 0.12 in3.0 mm 0.04 in1.0 mm
06:21 PM 54.6°F12.6°C 54.0°F12.2°C 98% 2.5 mph NE4.0 kmh NE 10.0 mph16.1 kmh 30.14 in1020.7 mb 0.04 in1.0 mm 0.12 in3.0 mm 0.05 in1.3 mm
06:26 PM 54.7°F12.6°C 54.1°F12.3°C 98% 1.4 mph NNE2.3 kmh NNE 10.0 mph16.1 kmh 30.14 in1020.7 mb 0.05 in1.3 mm 0.12 in3.0 mm 0.06 in1.5 mm
06:31 PM 54.6°F12.6°C 54.0°F12.2°C 98% 3.4 mph NE5.5 kmh NE 10.0 mph16.1 kmh 30.14 in1020.7 mb 0.06 in1.5 mm 0.12 in3.0 mm 0.07 in1.8 mm
06:36 PM 54.5°F12.5°C 53.9°F12.2°C 98% 4.1 mph N6.6 kmh N 10.0 mph16.1 kmh 30.13 in1020.3 mb 0.06 in1.5 mm 0.00 in0.0 mm 0.07 in1.8 mm
06:41 PM 54.2°F12.3°C 53.6°F12.0°C 98% 3.6 mph NNE5.8 kmh NNE 15.0 mph24.1 kmh 30.13 in1020.3 mb 0.06 in1.5 mm 0.00 in0.0 mm 0.07 in1.8 mm
06:45 PM 53.9°F12.2°C 53.3°F11.8°C 98% 7.1 mph NE11.4 kmh NE 15.0 mph24.1 kmh 30.13 in1020.3 mb 0.06 in1.5 mm 0.00 in0.0 mm 0.07 in1.8 mm
06:50 PM 53.8°F12.1°C 53.2°F11.8°C 98% 4.1 mph NE6.6 kmh NE 15.0 mph24.1 kmh 30.12 in1020.0 mb 0.06 in1.5 mm 0.00 in0.0 mm 0.07 in1.8 mm
06:55 PM 53.4°F11.9°C 52.5°F11.4°C 97% 7.4 mph NE11.9 kmh NE 19.0 mph30.6 kmh 30.12 in1020.0 mb 0.06 in1.5 mm 0.00 in0.0 mm 0.07 in1.8 mm
07:00 PM 53.2°F11.8°C 52.4°F11.3°C 97% 6.3 mph NE10.1 kmh NE 19.0 mph30.6 kmh 30.12 in1020.0 mb 0.05 in1.3 mm 0.00 in0.0 mm 0.07 in1.8 mm
07:05 PM 53.1°F11.7°C 52.3°F11.3°C 97% 5.9 mph NE9.5 kmh NE 19.0 mph30.6 kmh 30.12 in1020.0 mb 0.05 in1.3 mm 0.00 in0.0 mm 0.07 in1.8 mm
07:10 PM 53.0°F11.7°C 52.1°F11.2°C 97% 5.8 mph NE9.3 kmh NE 19.0 mph30.6 kmh 30.13 in1020.3 mb 0.04 in1.0 mm 0.00 in0.0 mm 0.07 in1.8 mm
07:15 PM 52.9°F11.6°C 52.1°F11.2°C 97% 3.3 mph NE5.3 kmh NE 12.0 mph19.3 kmh 30.13 in1020.3 mb 0.03 in0.8 mm 0.00 in0.0 mm 0.07 in1.8 mm
07:20 PM 52.8°F11.6°C 51.9°F11.1°C 97% 5.1 mph NE8.2 kmh NE 12.0 mph19.3 kmh 30.13 in1020.3 mb 0.03 in0.8 mm 0.00 in0.0 mm 0.08 in2.0 mm
07:25 PM 52.8°F11.6°C 51.9°F11.1°C 97% 5.6 mph NE9.0 kmh NE 12.0 mph19.3 kmh 30.13 in1020.3 mb 0.03 in0.8 mm 0.00 in0.0 mm 0.08 in2.0 mm
07:30 PM 52.9°F11.6°C 52.0°F11.1°C 97% 1.4 mph ENE2.3 kmh ENE 10.0 mph16.1 kmh 30.13 in1020.3 mb 0.01 in0.3 mm 0.00 in0.0 mm 0.08 in2.0 mm
07:35 PM 52.8°F11.6°C 51.9°F11.1°C 97% 4.3 mph NE6.9 kmh NE 10.0 mph16.1 kmh 30.12 in1020.0 mb 0.01 in0.3 mm 0.00 in0.0 mm 0.08 in2.0 mm
07:40 PM 52.9°F11.6°C 52.0°F11.1°C 97% 2.0 mph NE3.2 kmh NE 10.0 mph16.1 kmh 30.12 in1020.0 mb 0.01 in0.3 mm 0.00 in0.0 mm 0.08 in2.0 mm
07:45 PM 52.9°F11.6°C 52.1°F11.2°C 97% 1.7 mph NE2.7 kmh NE 8.0 mph12.9 kmh 30.13 in1020.3 mb 0.01 in0.3 mm 0.00 in0.0 mm 0.08 in2.0 mm
07:50 PM 52.9°F11.6°C 52.0°F11.1°C 97% 2.3 mph NE3.7 kmh NE 8.0 mph12.9 kmh 30.12 in1020.0 mb 0.01 in0.3 mm 0.00 in0.0 mm 0.08 in2.0 mm
07:55 PM 52.8°F11.6°C 51.9°F11.1°C 97% 2.1 mph NE3.4 kmh NE 8.0 mph12.9 kmh 30.12 in1020.0 mb 0.01 in0.3 mm 0.00 in0.0 mm 0.08 in2.0 mm
08:00 PM 52.8°F11.6°C 51.9°F11.1°C 97% 1.0 mph NE1.6 kmh NE 7.0 mph11.3 kmh 30.12 in1020.0 mb 0.01 in0.3 mm 0.00 in0.0 mm 0.08 in2.0 mm
08:05 PM 52.9°F11.6°C 52.0°F11.1°C 97% 1.4 mph NE2.3 kmh NE 5.0 mph8.0 kmh 30.12 in1020.0 mb 0.01 in0.3 mm 0.00 in0.0 mm 0.08 in2.0 mm
08:10 PM 52.9°F11.6°C 52.3°F11.3°C 98% Calm Calm 5.0 mph8.0 kmh 30.12 in1020.0 mb 0.01 in0.3 mm 0.00 in0.0 mm 0.08 in2.0 mm
08:15 PM 52.9°F11.6°C 52.3°F11.3°C 98% Calm Calm 3.0 mph4.8 kmh 30.12 in1020.0 mb 0.01 in0.3 mm 0.00 in0.0 mm 0.08 in2.0 mm
08:20 PM 52.9°F11.6°C 52.3°F11.3°C 98% Calm Calm 3.0 mph4.8 kmh 30.12 in1020.0 mb 0.00 in0.0 mm 0.00 in0.0 mm 0.08 in2.0 mm
08:25 PM 53.0°F11.7°C 52.5°F11.4°C 98% 1.6 mph ENE2.6 kmh ENE 4.0 mph6.4 kmh 30.12 in1020.0 mb 0.00 in0.0 mm 0.00 in0.0 mm 0.08 in2.0 mm
08:30 PM 53.0°F11.7°C 52.5°F11.4°C 98% 1.0 mph ESE1.6 kmh ESE 4.0 mph6.4 kmh 30.12 in1020.0 mb 0.00 in0.0 mm 0.00 in0.0 mm 0.08 in2.0 mm
08:35 PM 53.1°F11.7°C 52.6°F11.4°C 98% Calm Calm 4.0 mph6.4 kmh 30.12 in1020.0 mb 0.00 in0.0 mm 0.00 in0.0 mm 0.08 in2.0 mm
08:40 PM 53.1°F11.7°C 52.5°F11.4°C 98% 1.0 mph ENE1.6 kmh ENE 4.0 mph6.4 kmh 30.12 in1020.0 mb 0.00 in0.0 mm 0.00 in0.0 mm 0.08 in2.0 mm
08:45 PM 53.1°F11.7°C 52.5°F11.4°C 98% 1.1 mph NE1.8 kmh NE 3.0 mph4.8 kmh 30.12 in1020.0 mb 0.00 in0.0 mm 0.00 in0.0 mm 0.08 in2.0 mm
08:50 PM 53.2°F11.8°C 52.7°F11.5°C 98% Calm Calm 2.0 mph3.2 kmh 30.12 in1020.0 mb 0.00 in0.0 mm 0.00 in0.0 mm 0.08 in2.0 mm
08:55 PM 53.2°F11.8°C 52.6°F11.4°C 98% 1.4 mph E2.3 kmh E 2.0 mph3.2 kmh 30.12 in1020.0 mb 0.00 in0.0 mm 0.00 in0.0 mm 0.08 in2.0 mm
09:00 PM 53.2°F11.8°C 52.3°F11.3°C 97% 1.0 mph E1.6 kmh E 2.0 mph3.2 kmh 30.12 in1020.0 mb 0.00 in0.0 mm 0.00 in0.0 mm 0.08 in2.0 mm
09:05 PM 53.3°F11.8°C 52.4°F11.3°C 97% 2.1 mph E3.4 kmh E 4.0 mph6.4 kmh 30.11 in1019.6 mb 0.00 in0.0 mm 0.00 in0.0 mm 0.08 in2.0 mm
09:10 PM 53.3°F11.8°C 52.4°F11.3°C 97% 1.0 mph E1.6 kmh E 5.0 mph8.0 kmh 30.11 in1019.6 mb 0.00 in0.0 mm 0.00 in0.0 mm 0.08 in2.0 mm
09:15 PM 53.3°F11.8°C 52.5°F11.4°C 97% 1.0 mph ESE1.6 kmh ESE 5.0 mph8.0 kmh 30.12 in1020.0 mb 0.00 in0.0 mm 0.00 in0.0 mm 0.08 in2.0 mm
09:20 PM 53.4°F11.9°C 52.6°F11.4°C 97% Calm Calm 5.0 mph8.0 kmh 30.12 in1020.0 mb 0.00 in0.0 mm 0.00 in0.0 mm 0.08 in2.0 mm
09:25 PM 53.4°F11.9°C 52.6°F11.4°C 97% 1.0 mph ESE1.6 kmh ESE 4.0 mph6.4 kmh 30.11 in1019.6 mb 0.00 in0.0 mm 0.00 in0.0 mm 0.08 in2.0 mm
09:30 PM 53.4°F11.9°C 52.6°F11.4°C 97% 1.1 mph E1.8 kmh E 4.0 mph6.4 kmh 30.11 in1019.6 mb 0.00 in0.0 mm 0.00 in0.0 mm 0.08 in2.0 mm
09:35 PM 53.4°F11.9°C 52.6°F11.4°C 97% 1.4 mph E2.3 kmh E 4.0 mph6.4 kmh 30.11 in1019.6 mb 0.00 in0.0 mm 0.00 in0.0 mm 0.08 in2.0 mm
09:40 PM 53.4°F11.9°C 52.6°F11.4°C 97% 1.6 mph E2.6 kmh E 5.0 mph8.0 kmh 30.11 in1019.6 mb 0.00 in0.0 mm 0.00 in0.0 mm 0.08 in2.0 mm
09:45 PM 53.4°F11.9°C 52.6°F11.4°C 97% 1.4 mph E2.3 kmh E 5.0 mph8.0 kmh 30.11 in1019.6 mb 0.00 in0.0 mm 0.00 in0.0 mm 0.08 in2.0 mm
09:50 PM 53.4°F11.9°C 52.5°F11.4°C 97% 2.1 mph E3.4 kmh E 5.0 mph8.0 kmh 30.10 in1019.3 mb 0.00 in0.0 mm 0.00 in0.0 mm 0.08 in2.0 mm
09:55 PM 53.4°F11.9°C 52.5°F11.4°C 97% 1.9 mph E3.1 kmh E 6.0 mph9.7 kmh 30.10 in1019.3 mb 0.00 in0.0 mm 0.00 in0.0 mm 0.08 in2.0 mm
10:00 PM 53.4°F11.9°C 52.6°F11.4°C 97% 2.0 mph ESE3.2 kmh ESE 6.0 mph9.7 kmh 30.10 in1019.3 mb 0.00 in0.0 mm 0.00 in0.0 mm 0.08 in2.0 mm
10:05 PM 53.4°F11.9°C 52.6°F11.4°C 97% 2.6 mph E4.2 kmh E 7.0 mph11.3 kmh 30.10 in1019.3 mb 0.00 in0.0 mm 0.00 in0.0 mm 0.08 in2.0 mm
10:10 PM 53.4°F11.9°C 52.6°F11.4°C 97% 1.7 mph E2.7 kmh E 7.0 mph11.3 kmh 30.10 in1019.3 mb 0.00 in0.0 mm 0.00 in0.0 mm 0.08 in2.0 mm
10:15 PM 53.5°F11.9°C 52.6°F11.4°C 97% 1.9 mph ENE3.1 kmh ENE 7.0 mph11.3 kmh 30.10 in1019.3 mb 0.00 in0.0 mm 0.00 in0.0 mm 0.08 in2.0 mm
10:20 PM 53.5°F11.9°C 52.7°F11.5°C 97% 2.6 mph E4.2 kmh E 7.0 mph11.3 kmh 30.10 in1019.3 mb 0.00 in0.0 mm 0.00 in0.0 mm 0.08 in2.0 mm
10:25 PM 53.5°F11.9°C 52.6°F11.4°C 97% 1.0 mph E1.6 kmh E 5.0 mph8.0 kmh 30.09 in1019.0 mb 0.00 in0.0 mm 0.00 in0.0 mm 0.08 in2.0 mm
10:30 PM 53.5°F11.9°C 52.7°F11.5°C 97% 1.0 mph ESE1.6 kmh ESE 5.0 mph8.0 kmh 30.09 in1019.0 mb 0.00 in0.0 mm 0.00 in0.0 mm 0.08 in2.0 mm
10:35 PM 53.5°F11.9°C 52.7°F11.5°C 97% 2.0 mph ENE3.2 kmh ENE 5.0 mph8.0 kmh 30.09 in1019.0 mb 0.00 in0.0 mm 0.00 in0.0 mm 0.08 in2.0 mm
10:40 PM 53.5°F11.9°C 52.7°F11.5°C 97% 1.4 mph E2.3 kmh E 3.0 mph4.8 kmh 30.09 in1019.0 mb 0.00 in0.0 mm 0.00 in0.0 mm 0.08 in2.0 mm
10:45 PM 53.5°F11.9°C 52.7°F11.5°C 97% 3.0 mph E4.8 kmh E 6.0 mph9.7 kmh 30.09 in1019.0 mb 0.00 in0.0 mm 0.00 in0.0 mm 0.08 in2.0 mm
10:50 PM 53.5°F11.9°C 52.6°F11.4°C 97% 2.5 mph E4.0 kmh E 6.0 mph9.7 kmh 30.08 in1018.6 mb 0.00 in0.0 mm 0.00 in0.0 mm 0.08 in2.0 mm
10:55 PM 53.6°F12.0°C 52.7°F11.5°C 97% 1.3 mph E2.1 kmh E 6.0 mph9.7 kmh 30.08 in1018.6 mb 0.00 in0.0 mm 0.00 in0.0 mm 0.08 in2.0 mm
11:00 PM 53.6°F12.0°C 52.8°F11.6°C 97% 2.2 mph E3.5 kmh E 6.0 mph9.7 kmh 30.08 in1018.6 mb 0.00 in0.0 mm 0.00 in0.0 mm 0.08 in2.0 mm
11:05 PM 53.6°F12.0°C 52.8°F11.6°C 97% 1.0 mph E1.6 kmh E 5.0 mph8.0 kmh 30.08 in1018.6 mb 0.00 in0.0 mm 0.00 in0.0 mm 0.08 in2.0 mm
11:10 PM 53.6°F12.0°C 52.8°F11.6°C 97% 1.4 mph E2.3 kmh E 5.0 mph8.0 kmh 30.08 in1018.6 mb 0.00 in0.0 mm 0.00 in0.0 mm 0.08 in2.0 mm
11:15 PM 53.7°F12.1°C 52.9°F11.6°C 97% 1.0 mph E1.6 kmh E 5.0 mph8.0 kmh 30.07 in1018.3 mb 0.00 in0.0 mm 0.00 in0.0 mm 0.08 in2.0 mm
11:20 PM 53.6°F12.0°C 52.8°F11.6°C 97% 1.6 mph E2.6 kmh E 3.0 mph4.8 kmh 30.07 in1018.3 mb 0.00 in0.0 mm 0.00 in0.0 mm 0.08 in2.0 mm
11:25 PM 53.7°F12.1°C 52.8°F11.6°C 97% 1.5 mph E2.4 kmh E 3.0 mph4.8 kmh 30.07 in1018.3 mb 0.00 in0.0 mm 0.00 in0.0 mm 0.08 in2.0 mm
11:30 PM 53.7°F12.1°C 52.8°F11.6°C 97% 1.9 mph E3.1 kmh E 3.0 mph4.8 kmh 30.06 in1017.9 mb 0.00 in0.0 mm 0.00 in0.0 mm 0.08 in2.0 mm
11:35 PM 53.8°F12.1°C 53.0°F11.7°C 97% 1.1 mph E1.8 kmh E 3.0 mph4.8 kmh 30.06 in1017.9 mb 0.00 in0.0 mm 0.00 in0.0 mm 0.08 in2.0 mm
11:40 PM 53.8°F12.1°C 53.0°F11.7°C 97% 1.0 mph E1.6 kmh E 3.0 mph4.8 kmh 30.06 in1017.9 mb 0.00 in0.0 mm 0.00 in0.0 mm 0.08 in2.0 mm
11:44 PM 53.8°F12.1°C 53.0°F11.7°C 97% 1.3 mph ESE2.1 kmh ESE 3.0 mph4.8 kmh 30.06 in1017.9 mb 0.00 in0.0 mm 0.00 in0.0 mm 0.08 in2.0 mm
11:49 PM 53.8°F12.1°C 53.0°F11.7°C 97% 1.4 mph ESE2.3 kmh ESE 3.0 mph4.8 kmh 30.06 in1017.9 mb 0.00 in0.0 mm 0.00 in0.0 mm 0.08 in2.0 mm
11:54 PM 53.8°F12.1°C 53.0°F11.7°C 97% 1.1 mph E1.8 kmh E 3.0 mph4.8 kmh 30.06 in1017.9 mb 0.00 in0.0 mm 0.00 in0.0 mm 0.08 in2.0 mm
11:59 PM 53.9°F12.2°C 53.0°F11.7°C 97% 1.0 mph ENE1.6 kmh ENE 3.0 mph4.8 kmh 30.06 in1017.9 mb 0.00 in0.0 mm 0.00 in0.0 mm 0.08 in2.0 mm